sensor_id;sensor_type;location;lat;lon;timestamp;P1;durP1;ratioP1;P2;durP2;ratioP2
11767;SDS011;5941;57.652;12.514;2023-06-14T00:02:04;664.45;;;632.22;;
11767;SDS011;5941;57.652;12.514;2023-06-14T00:04:32;686.13;;;651.85;;
11767;SDS011;5941;57.652;12.514;2023-06-14T00:06:58;667.67;;;635.20;;
11767;SDS011;5941;57.652;12.514;2023-06-14T00:09:24;662.33;;;629.72;;
11767;SDS011;5941;57.652;12.514;2023-06-14T00:11:50;680.90;;;647.72;;
11767;SDS011;5941;57.652;12.514;2023-06-14T00:14:17;654.53;;;622.55;;
11767;SDS011;5941;57.652;12.514;2023-06-14T00:16:43;640.85;;;610.05;;
11767;SDS011;5941;57.652;12.514;2023-06-14T00:19:09;643.72;;;613.17;;
11767;SDS011;5941;57.652;12.514;2023-06-14T00:21:36;640.90;;;610.45;;
11767;SDS011;5941;57.652;12.514;2023-06-14T00:24:02;647.03;;;615.70;;
11767;SDS011;5941;57.652;12.514;2023-06-14T00:26:29;644.78;;;613.50;;
11767;SDS011;5941;57.652;12.514;2023-06-14T00:28:55;636.50;;;606.33;;
11767;SDS011;5941;57.652;12.514;2023-06-14T00:31:21;650.42;;;618.70;;
11767;SDS011;5941;57.652;12.514;2023-06-14T00:33:47;664.22;;;631.78;;
11767;SDS011;5941;57.652;12.514;2023-06-14T00:36:13;661.90;;;630.05;;
11767;SDS011;5941;57.652;12.514;2023-06-14T00:38:39;692.60;;;658.08;;
11767;SDS011;5941;57.652;12.514;2023-06-14T00:41:05;669.28;;;636.78;;
11767;SDS011;5941;57.652;12.514;2023-06-14T00:43:31;647.78;;;616.75;;
11767;SDS011;5941;57.652;12.514;2023-06-14T00:45:59;661.93;;;629.70;;
11767;SDS011;5941;57.652;12.514;2023-06-14T00:48:25;656.20;;;624.33;;
11767;SDS011;5941;57.652;12.514;2023-06-14T00:50:51;702.67;;;666.60;;
11767;SDS011;5941;57.652;12.514;2023-06-14T00:53:17;729.40;;;690.93;;
11767;SDS011;5941;57.652;12.514;2023-06-14T00:55:45;737.37;;;698.23;;
11767;SDS011;5941;57.652;12.514;2023-06-14T00:58:11;768.70;;;726.40;;
11767;SDS011;5941;57.652;12.514;2023-06-14T01:00:37;758.57;;;717.33;;
11767;SDS011;5941;57.652;12.514;2023-06-14T01:03:03;788.87;;;744.80;;
11767;SDS011;5941;57.652;12.514;2023-06-14T01:05:29;781.87;;;738.73;;
11767;SDS011;5941;57.652;12.514;2023-06-14T01:08:03;801.03;;;756.33;;
11767;SDS011;5941;57.652;12.514;2023-06-14T01:13:20;814.03;;;767.33;;
11767;SDS011;5941;57.652;12.514;2023-06-14T01:15:46;821.50;;;774.33;;
11767;SDS011;5941;57.652;12.514;2023-06-14T01:18:13;824.00;;;776.50;;
11767;SDS011;5941;57.652;12.514;2023-06-14T01:20:42;809.60;;;763.97;;
11767;SDS011;5941;57.652;12.514;2023-06-14T01:23:10;812.10;;;765.87;;
11767;SDS011;5941;57.652;12.514;2023-06-14T01:25:37;820.47;;;774.30;;
11767;SDS011;5941;57.652;12.514;2023-06-14T01:28:05;821.33;;;774.70;;
11767;SDS011;5941;57.652;12.514;2023-06-14T01:30:36;822.60;;;775.17;;
11767;SDS011;5941;57.652;12.514;2023-06-14T01:33:02;825.43;;;778.03;;
11767;SDS011;5941;57.652;12.514;2023-06-14T01:35:30;803.83;;;759.10;;
11767;SDS011;5941;57.652;12.514;2023-06-14T01:37:56;774.63;;;733.30;;
11767;SDS011;5941;57.652;12.514;2023-06-14T01:40:22;786.53;;;743.37;;
11767;SDS011;5941;57.652;12.514;2023-06-14T01:42:49;771.80;;;730.57;;
11767;SDS011;5941;57.652;12.514;2023-06-14T01:45:15;735.13;;;697.23;;
11767;SDS011;5941;57.652;12.514;2023-06-14T01:47:42;739.17;;;700.73;;
11767;SDS011;5941;57.652;12.514;2023-06-14T01:50:09;718.37;;;682.33;;
11767;SDS011;5941;57.652;12.514;2023-06-14T01:52:36;737.13;;;699.00;;
11767;SDS011;5941;57.652;12.514;2023-06-14T01:55:03;757.07;;;717.70;;
11767;SDS011;5941;57.652;12.514;2023-06-14T01:57:29;804.73;;;759.90;;
11767;SDS011;5941;57.652;12.514;2023-06-14T01:59:55;814.87;;;768.53;;
11767;SDS011;5941;57.652;12.514;2023-06-14T02:02:21;818.70;;;771.83;;
11767;SDS011;5941;57.652;12.514;2023-06-14T02:04:47;812.40;;;766.27;;
11767;SDS011;5941;57.652;12.514;2023-06-14T02:07:13;790.87;;;747.30;;
11767;SDS011;5941;57.652;12.514;2023-06-14T02:09:42;742.43;;;703.73;;
11767;SDS011;5941;57.652;12.514;2023-06-14T02:12:09;723.87;;;687.30;;
11767;SDS011;5941;57.652;12.514;2023-06-14T02:14:35;699.77;;;665.03;;
11767;SDS011;5941;57.652;12.514;2023-06-14T02:17:03;745.50;;;706.60;;
11767;SDS011;5941;57.652;12.514;2023-06-14T02:19:29;755.43;;;715.83;;
11767;SDS011;5941;57.652;12.514;2023-06-14T02:21:56;729.90;;;692.47;;
11767;SDS011;5941;57.652;12.514;2023-06-14T02:24:21;727.63;;;690.93;;
11767;SDS011;5941;57.652;12.514;2023-06-14T02:26:48;766.87;;;725.87;;
11767;SDS011;5941;57.652;12.514;2023-06-14T02:29:15;735.73;;;697.77;;
11767;SDS011;5941;57.652;12.514;2023-06-14T02:31:41;746.70;;;707.87;;
11767;SDS011;5941;57.652;12.514;2023-06-14T02:34:07;745.83;;;707.63;;
11767;SDS011;5941;57.652;12.514;2023-06-14T02:36:33;736.90;;;699.20;;
11767;SDS011;5941;57.652;12.514;2023-06-14T02:38:59;748.63;;;709.77;;
11767;SDS011;5941;57.652;12.514;2023-06-14T02:41:26;720.57;;;683.90;;
11767;SDS011;5941;57.652;12.514;2023-06-14T02:43:52;710.83;;;675.27;;
11767;SDS011;5941;57.652;12.514;2023-06-14T02:46:18;696.40;;;662.10;;
11767;SDS011;5941;57.652;12.514;2023-06-14T02:48:44;700.40;;;666.03;;
11767;SDS011;5941;57.652;12.514;2023-06-14T02:51:10;718.47;;;682.47;;
11767;SDS011;5941;57.652;12.514;2023-06-14T02:53:37;754.37;;;714.83;;
11767;SDS011;5941;57.652;12.514;2023-06-14T02:56:03;733.63;;;695.93;;
11767;SDS011;5941;57.652;12.514;2023-06-14T02:58:30;733.33;;;696.17;;
11767;SDS011;5941;57.652;12.514;2023-06-14T03:00:56;687.97;;;654.17;;
11767;SDS011;5941;57.652;12.514;2023-06-14T03:03:22;680.13;;;646.70;;
11767;SDS011;5941;57.652;12.514;2023-06-14T03:05:49;704.43;;;669.57;;
11767;SDS011;5941;57.652;12.514;2023-06-14T03:08:16;695.23;;;661.00;;
11767;SDS011;5941;57.652;12.514;2023-06-14T03:10:44;704.47;;;669.97;;
11767;SDS011;5941;57.652;12.514;2023-06-14T03:13:10;693.87;;;659.77;;
11767;SDS011;5941;57.652;12.514;2023-06-14T03:15:37;704.70;;;669.80;;
11767;SDS011;5941;57.652;12.514;2023-06-14T03:18:03;720.37;;;683.67;;
11767;SDS011;5941;57.652;12.514;2023-06-14T03:20:29;758.70;;;718.40;;
11767;SDS011;5941;57.652;12.514;2023-06-14T03:22:58;764.83;;;723.47;;
11767;SDS011;5941;57.652;12.514;2023-06-14T03:25:24;788.93;;;745.80;;
11767;SDS011;5941;57.652;12.514;2023-06-14T03:27:50;776.80;;;733.90;;
11767;SDS011;5941;57.652;12.514;2023-06-14T03:30:16;781.13;;;738.67;;
11767;SDS011;5941;57.652;12.514;2023-06-14T03:32:42;786.37;;;743.47;;
11767;SDS011;5941;57.652;12.514;2023-06-14T03:35:09;813.47;;;767.87;;
11767;SDS011;5941;57.652;12.514;2023-06-14T03:37:41;846.77;;;796.70;;
11767;SDS011;5941;57.652;12.514;2023-06-14T03:40:07;883.77;;;829.67;;
11767;SDS011;5941;57.652;12.514;2023-06-14T03:42:33;886.07;;;831.87;;
11767;SDS011;5941;57.652;12.514;2023-06-14T03:44:59;887.23;;;831.97;;
11767;SDS011;5941;57.652;12.514;2023-06-14T03:47:25;908.20;;;851.47;;
11767;SDS011;5941;57.652;12.514;2023-06-14T03:49:52;879.10;;;825.47;;
11767;SDS011;5941;57.652;12.514;2023-06-14T03:52:18;895.93;;;840.27;;
11767;SDS011;5941;57.652;12.514;2023-06-14T03:54:44;900.80;;;844.80;;
11767;SDS011;5941;57.652;12.514;2023-06-14T03:57:11;911.63;;;855.03;;
11767;SDS011;5941;57.652;12.514;2023-06-14T03:59:37;865.70;;;813.23;;
11767;SDS011;5941;57.652;12.514;2023-06-14T04:02:03;869.50;;;816.70;;
11767;SDS011;5941;57.652;12.514;2023-06-14T04:04:29;914.53;;;856.33;;
11767;SDS011;5941;57.652;12.514;2023-06-14T04:06:55;929.27;;;869.93;;
11767;SDS011;5941;57.652;12.514;2023-06-14T04:09:25;868.93;;;816.17;;
11767;SDS011;5941;57.652;12.514;2023-06-14T04:11:54;908.63;;;850.70;;
11767;SDS011;5941;57.652;12.514;2023-06-14T04:14:20;922.73;;;863.47;;
11767;SDS011;5941;57.652;12.514;2023-06-14T04:16:46;916.27;;;857.60;;
11767;SDS011;5941;57.652;12.514;2023-06-14T04:19:13;916.13;;;858.00;;
11767;SDS011;5941;57.652;12.514;2023-06-14T04:21:39;930.67;;;870.70;;
11767;SDS011;5941;57.652;12.514;2023-06-14T04:24:05;911.03;;;853.00;;
11767;SDS011;5941;57.652;12.514;2023-06-14T04:26:31;926.90;;;867.43;;
11767;SDS011;5941;57.652;12.514;2023-06-14T04:28:59;925.30;;;865.80;;
11767;SDS011;5941;57.652;12.514;2023-06-14T04:31:28;932.23;;;871.50;;
11767;SDS011;5941;57.652;12.514;2023-06-14T04:33:58;929.47;;;869.30;;
11767;SDS011;5941;57.652;12.514;2023-06-14T04:36:24;932.63;;;871.93;;
11767;SDS011;5941;57.652;12.514;2023-06-14T04:38:50;916.30;;;857.60;;
11767;SDS011;5941;57.652;12.514;2023-06-14T04:41:19;946.37;;;884.30;;
11767;SDS011;5941;57.652;12.514;2023-06-14T04:43:45;912.63;;;854.63;;
11767;SDS011;5941;57.652;12.514;2023-06-14T04:46:13;940.90;;;878.13;;
11767;SDS011;5941;57.652;12.514;2023-06-14T04:48:39;929.57;;;868.63;;
11767;SDS011;5941;57.652;12.514;2023-06-14T04:51:07;947.07;;;884.43;;
11767;SDS011;5941;57.652;12.514;2023-06-14T04:53:33;941.37;;;878.83;;
11767;SDS011;5941;57.652;12.514;2023-06-14T04:55:59;949.10;;;886.27;;
11767;SDS011;5941;57.652;12.514;2023-06-14T04:58:26;947.10;;;883.90;;
11767;SDS011;5941;57.652;12.514;2023-06-14T05:00:53;944.53;;;882.33;;
11767;SDS011;5941;57.652;12.514;2023-06-14T05:03:20;934.13;;;872.47;;
11767;SDS011;5941;57.652;12.514;2023-06-14T05:05:46;953.83;;;889.17;;
11767;SDS011;5941;57.652;12.514;2023-06-14T05:08:12;958.37;;;894.03;;
11767;SDS011;5941;57.652;12.514;2023-06-14T05:10:38;936.13;;;874.23;;
11767;SDS011;5941;57.652;12.514;2023-06-14T05:13:04;964.73;;;899.50;;
11767;SDS011;5941;57.652;12.514;2023-06-14T05:15:30;962.80;;;897.63;;
11767;SDS011;5941;57.652;12.514;2023-06-14T05:17:56;951.90;;;888.57;;
11767;SDS011;5941;57.652;12.514;2023-06-14T05:20:23;894.87;;;837.30;;
11767;SDS011;5941;57.652;12.514;2023-06-14T05:22:52;949.23;;;885.17;;
11767;SDS011;5941;57.652;12.514;2023-06-14T05:25:19;965.47;;;899.87;;
11767;SDS011;5941;57.652;12.514;2023-06-14T05:27:45;943.07;;;880.73;;
11767;SDS011;5941;57.652;12.514;2023-06-14T05:30:12;955.77;;;891.33;;
11767;SDS011;5941;57.652;12.514;2023-06-14T05:32:38;1999.90;;;999.90;;
11767;SDS011;5941;57.652;12.514;2023-06-14T05:35:04;969.57;;;902.60;;
11767;SDS011;5941;57.652;12.514;2023-06-14T05:37:30;978.70;;;911.53;;
11767;SDS011;5941;57.652;12.514;2023-06-14T05:39:56;932.70;;;871.47;;
11767;SDS011;5941;57.652;12.514;2023-06-14T05:42:22;943.67;;;880.70;;
11767;SDS011;5941;57.652;12.514;2023-06-14T05:44:48;956.80;;;892.20;;
11767;SDS011;5941;57.652;12.514;2023-06-14T05:47:14;969.43;;;902.67;;
11767;SDS011;5941;57.652;12.514;2023-06-14T05:49:40;1999.90;;;999.90;;
11767;SDS011;5941;57.652;12.514;2023-06-14T05:52:06;1004.27;;;933.07;;
11767;SDS011;5941;57.652;12.514;2023-06-14T05:54:32;687.17;;;653.63;;
11767;SDS011;5941;57.652;12.514;2023-06-14T05:56:59;891.87;;;835.03;;
11767;SDS011;5941;57.652;12.514;2023-06-14T05:59:29;695.87;;;661.40;;
11767;SDS011;5941;57.652;12.514;2023-06-14T06:01:55;725.53;;;689.03;;
11767;SDS011;5941;57.652;12.514;2023-06-14T06:04:22;705.50;;;670.40;;
11767;SDS011;5941;57.652;12.514;2023-06-14T06:06:49;764.50;;;724.43;;
11767;SDS011;5941;57.652;12.514;2023-06-14T06:09:15;849.77;;;799.90;;
11767;SDS011;5941;57.652;12.514;2023-06-14T06:11:41;738.20;;;699.73;;
11767;SDS011;5941;57.652;12.514;2023-06-14T06:14:07;832.53;;;784.30;;
11767;SDS011;5941;57.652;12.514;2023-06-14T06:16:33;819.93;;;773.63;;
11767;SDS011;5941;57.652;12.514;2023-06-14T06:18:59;819.83;;;773.03;;
11767;SDS011;5941;57.652;12.514;2023-06-14T06:21:25;807.47;;;762.43;;
11767;SDS011;5941;57.652;12.514;2023-06-14T06:23:51;726.37;;;689.03;;
11767;SDS011;5941;57.652;12.514;2023-06-14T06:26:17;842.97;;;793.70;;
11767;SDS011;5941;57.652;12.514;2023-06-14T06:28:43;747.50;;;708.20;;
11767;SDS011;5941;57.652;12.514;2023-06-14T06:31:09;799.90;;;755.67;;
11767;SDS011;5941;57.652;12.514;2023-06-14T06:33:36;741.23;;;702.33;;
11767;SDS011;5941;57.652;12.514;2023-06-14T06:36:02;805.53;;;760.40;;
11767;SDS011;5941;57.652;12.514;2023-06-14T06:38:28;801.83;;;756.27;;
11767;SDS011;5941;57.652;12.514;2023-06-14T06:40:54;751.73;;;711.57;;
11767;SDS011;5941;57.652;12.514;2023-06-14T06:43:21;797.07;;;752.10;;
11767;SDS011;5941;57.652;12.514;2023-06-14T06:45:47;802.97;;;757.60;;
11767;SDS011;5941;57.652;12.514;2023-06-14T06:48:13;819.07;;;772.07;;
11767;SDS011;5941;57.652;12.514;2023-06-14T06:50:40;727.13;;;689.37;;
11767;SDS011;5941;57.652;12.514;2023-06-14T06:53:06;842.73;;;793.83;;
11767;SDS011;5941;57.652;12.514;2023-06-14T06:55:32;720.87;;;683.97;;
11767;SDS011;5941;57.652;12.514;2023-06-14T06:57:58;786.73;;;743.53;;
11767;SDS011;5941;57.652;12.514;2023-06-14T07:00:25;842.72;;;793.65;;
11767;SDS011;5941;57.652;12.514;2023-06-14T07:02:51;836.20;;;787.70;;
11767;SDS011;5941;57.652;12.514;2023-06-14T07:05:19;820.13;;;773.00;;
11767;SDS011;5941;57.652;12.514;2023-06-14T07:07:45;760.37;;;719.90;;
11767;SDS011;5941;57.652;12.514;2023-06-14T07:10:12;834.97;;;786.80;;
11767;SDS011;5941;57.652;12.514;2023-06-14T07:12:38;730.00;;;692.53;;
11767;SDS011;5941;57.652;12.514;2023-06-14T07:15:04;784.80;;;741.30;;
11767;SDS011;5941;57.652;12.514;2023-06-14T07:17:31;826.13;;;778.47;;
11767;SDS011;5941;57.652;12.514;2023-06-14T07:19:58;825.53;;;778.13;;
11767;SDS011;5941;57.652;12.514;2023-06-14T07:22:24;828.90;;;781.13;;
11767;SDS011;5941;57.652;12.514;2023-06-14T07:24:49;823.47;;;776.10;;
11767;SDS011;5941;57.652;12.514;2023-06-14T07:27:16;830.60;;;783.17;;
11767;SDS011;5941;57.652;12.514;2023-06-14T07:29:41;768.65;;;726.92;;
11767;SDS011;5941;57.652;12.514;2023-06-14T07:32:07;792.40;;;749.40;;
11767;SDS011;5941;57.652;12.514;2023-06-14T07:34:33;825.42;;;778.42;;
11767;SDS011;5941;57.652;12.514;2023-06-14T07:36:59;818.88;;;772.42;;
11767;SDS011;5941;57.652;12.514;2023-06-14T07:39:25;820.30;;;773.10;;
11767;SDS011;5941;57.652;12.514;2023-06-14T07:41:51;826.72;;;779.50;;
11767;SDS011;5941;57.652;12.514;2023-06-14T07:44:17;808.33;;;763.05;;
11767;SDS011;5941;57.652;12.514;2023-06-14T07:46:43;798.88;;;755.17;;
11767;SDS011;5941;57.652;12.514;2023-06-14T07:49:11;808.65;;;763.10;;
11767;SDS011;5941;57.652;12.514;2023-06-14T07:51:37;809.95;;;765.17;;
11767;SDS011;5941;57.652;12.514;2023-06-14T07:54:03;817.25;;;771.38;;
11767;SDS011;5941;57.652;12.514;2023-06-14T07:56:29;789.15;;;746.42;;
11767;SDS011;5941;57.652;12.514;2023-06-14T07:58:55;809.97;;;764.88;;
11767;SDS011;5941;57.652;12.514;2023-06-14T08:01:21;806.03;;;761.15;;
11767;SDS011;5941;57.652;12.514;2023-06-14T08:03:49;797.97;;;753.55;;
11767;SDS011;5941;57.652;12.514;2023-06-14T08:06:15;777.53;;;735.25;;
11767;SDS011;5941;57.652;12.514;2023-06-14T08:08:41;818.50;;;772.38;;
11767;SDS011;5941;57.652;12.514;2023-06-14T08:11:07;800.53;;;756.90;;
11767;SDS011;5941;57.652;12.514;2023-06-14T08:13:33;782.13;;;739.83;;
11767;SDS011;5941;57.652;12.514;2023-06-14T08:15:59;745.25;;;706.67;;
11767;SDS011;5941;57.652;12.514;2023-06-14T08:18:26;752.03;;;711.88;;
11767;SDS011;5941;57.652;12.514;2023-06-14T08:20:52;736.58;;;698.42;;
11767;SDS011;5941;57.652;12.514;2023-06-14T08:23:19;725.50;;;688.85;;
11767;SDS011;5941;57.652;12.514;2023-06-14T08:25:46;768.80;;;727.67;;
11767;SDS011;5941;57.652;12.514;2023-06-14T08:28:12;730.85;;;692.45;;
11767;SDS011;5941;57.652;12.514;2023-06-14T08:30:38;740.78;;;701.75;;
11767;SDS011;5941;57.652;12.514;2023-06-14T08:33:03;725.97;;;689.28;;
11767;SDS011;5941;57.652;12.514;2023-06-14T08:35:30;726.58;;;688.47;;
11767;SDS011;5941;57.652;12.514;2023-06-14T08:37:56;771.08;;;729.78;;
11767;SDS011;5941;57.652;12.514;2023-06-14T08:40:22;737.63;;;699.65;;
11767;SDS011;5941;57.652;12.514;2023-06-14T08:42:53;715.45;;;678.92;;
11767;SDS011;5941;57.652;12.514;2023-06-14T08:45:20;722.92;;;685.42;;
11767;SDS011;5941;57.652;12.514;2023-06-14T08:47:46;717.58;;;680.15;;
11767;SDS011;5941;57.652;12.514;2023-06-14T08:50:17;736.45;;;697.65;;
11767;SDS011;5941;57.652;12.514;2023-06-14T08:52:45;761.42;;;720.10;;
11767;SDS011;5941;57.652;12.514;2023-06-14T08:55:15;721.95;;;683.92;;
11767;SDS011;5941;57.652;12.514;2023-06-14T08:57:42;608.55;;;579.88;;
11767;SDS011;5941;57.652;12.514;2023-06-14T09:00:09;568.13;;;540.78;;
11767;SDS011;5941;57.652;12.514;2023-06-14T09:02:38;361.05;;;346.50;;
11767;SDS011;5941;57.652;12.514;2023-06-14T09:05:08;552.83;;;527.75;;
11767;SDS011;5941;57.652;12.514;2023-06-14T09:07:34;352.75;;;338.50;;
11767;SDS011;5941;57.652;12.514;2023-06-14T09:10:08;174.85;;;168.35;;
11767;SDS011;5941;57.652;12.514;2023-06-14T09:12:35;655.00;;;622.53;;
11767;SDS011;5941;57.652;12.514;2023-06-14T09:15:01;237.65;;;228.77;;
11767;SDS011;5941;57.652;12.514;2023-06-14T09:17:32;677.25;;;643.08;;
11767;SDS011;5941;57.652;12.514;2023-06-14T09:19:59;427.45;;;409.60;;
11767;SDS011;5941;57.652;12.514;2023-06-14T09:22:25;125.47;;;120.75;;
11767;SDS011;5941;57.652;12.514;2023-06-14T09:24:51;147.65;;;141.95;;
11767;SDS011;5941;57.652;12.514;2023-06-14T09:27:17;156.40;;;150.55;;
11767;SDS011;5941;57.652;12.514;2023-06-14T09:29:43;166.15;;;159.98;;
11767;SDS011;5941;57.652;12.514;2023-06-14T09:32:09;161.15;;;155.20;;
11767;SDS011;5941;57.652;12.514;2023-06-14T09:34:35;266.55;;;256.20;;
11767;SDS011;5941;57.652;12.514;2023-06-14T09:37:02;177.95;;;171.07;;
11767;SDS011;5941;57.652;12.514;2023-06-14T09:39:28;167.43;;;161.18;;
11767;SDS011;5941;57.652;12.514;2023-06-14T09:41:53;170.50;;;164.27;;
11767;SDS011;5941;57.652;12.514;2023-06-14T09:44:20;188.15;;;181.35;;
11767;SDS011;5941;57.652;12.514;2023-06-14T09:46:46;162.93;;;157.02;;
11767;SDS011;5941;57.652;12.514;2023-06-14T09:49:13;198.73;;;191.30;;
11767;SDS011;5941;57.652;12.514;2023-06-14T09:51:42;227.95;;;219.88;;
11767;SDS011;5941;57.652;12.514;2023-06-14T09:54:08;249.93;;;240.77;;
11767;SDS011;5941;57.652;12.514;2023-06-14T09:56:37;260.17;;;250.77;;
11767;SDS011;5941;57.652;12.514;2023-06-14T09:59:04;267.48;;;257.70;;
11767;SDS011;5941;57.652;12.514;2023-06-14T10:01:32;226.77;;;218.40;;
11767;SDS011;5941;57.652;12.514;2023-06-14T10:04:03;269.75;;;259.92;;
11767;SDS011;5941;57.652;12.514;2023-06-14T10:06:29;271.13;;;261.35;;
11767;SDS011;5941;57.652;12.514;2023-06-14T10:08:56;293.10;;;282.30;;
11767;SDS011;5941;57.652;12.514;2023-06-14T10:11:24;285.75;;;275.30;;
11767;SDS011;5941;57.652;12.514;2023-06-14T10:13:50;170.57;;;164.27;;
11767;SDS011;5941;57.652;12.514;2023-06-14T10:21:36;287.20;;;276.70;;
11767;SDS011;5941;57.652;12.514;2023-06-14T10:24:07;296.25;;;284.95;;
11767;SDS011;5941;57.652;12.514;2023-06-14T10:26:35;308.13;;;296.67;;
11767;SDS011;5941;57.652;12.514;2023-06-14T10:29:15;323.83;;;311.58;;
11767;SDS011;5941;57.652;12.514;2023-06-14T10:31:42;280.92;;;270.45;;
11767;SDS011;5941;57.652;12.514;2023-06-14T10:34:08;346.25;;;332.58;;
11767;SDS011;5941;57.652;12.514;2023-06-14T10:36:34;339.60;;;326.48;;
11767;SDS011;5941;57.652;12.514;2023-06-14T10:39:07;315.40;;;303.45;;
11767;SDS011;5941;57.652;12.514;2023-06-14T10:41:37;333.02;;;320.17;;
11767;SDS011;5941;57.652;12.514;2023-06-14T10:46:59;350.42;;;336.80;;
11767;SDS011;5941;57.652;12.514;2023-06-14T10:49:41;314.67;;;302.90;;
11767;SDS011;5941;57.652;12.514;2023-06-14T10:52:08;362.25;;;348.10;;
11767;SDS011;5941;57.652;12.514;2023-06-14T10:54:36;259.55;;;250.23;;
11767;SDS011;5941;57.652;12.514;2023-06-14T10:57:02;369.85;;;355.42;;
11767;SDS011;5941;57.652;12.514;2023-06-14T10:59:32;301.00;;;289.60;;
11767;SDS011;5941;57.652;12.514;2023-06-14T11:02:04;329.85;;;317.17;;
11767;SDS011;5941;57.652;12.514;2023-06-14T11:07:37;409.63;;;393.05;;
11767;SDS011;5941;57.652;12.514;2023-06-14T11:10:20;277.67;;;267.40;;
11767;SDS011;5941;57.652;12.514;2023-06-14T11:12:51;51.90;;;49.42;;
11767;SDS011;5941;57.652;12.514;2023-06-14T11:15:18;202.80;;;195.45;;
11767;SDS011;5941;57.652;12.514;2023-06-14T11:17:53;157.13;;;151.23;;
11767;SDS011;5941;57.652;12.514;2023-06-14T11:20:19;176.60;;;170.23;;
11767;SDS011;5941;57.652;12.514;2023-06-14T11:22:45;100.88;;;97.07;;
11767;SDS011;5941;57.652;12.514;2023-06-14T11:25:11;28.10;;;26.90;;
11767;SDS011;5941;57.652;12.514;2023-06-14T11:27:37;57.80;;;55.22;;
11767;SDS011;5941;57.652;12.514;2023-06-14T11:30:06;126.60;;;121.63;;
11767;SDS011;5941;57.652;12.514;2023-06-14T11:32:33;122.75;;;118.03;;
11767;SDS011;5941;57.652;12.514;2023-06-14T11:34:59;94.97;;;91.28;;
11767;SDS011;5941;57.652;12.514;2023-06-14T11:37:26;91.60;;;87.93;;
11767;SDS011;5941;57.652;12.514;2023-06-14T11:39:56;160.65;;;154.70;;
11767;SDS011;5941;57.652;12.514;2023-06-14T11:42:22;144.95;;;139.35;;
11767;SDS011;5941;57.652;12.514;2023-06-14T11:44:49;165.63;;;159.48;;
11767;SDS011;5941;57.652;12.514;2023-06-14T11:47:15;73.05;;;70.07;;
11767;SDS011;5941;57.652;12.514;2023-06-14T11:49:41;48.08;;;45.92;;
11767;SDS011;5941;57.652;12.514;2023-06-14T11:52:08;110.35;;;106.28;;
11767;SDS011;5941;57.652;12.514;2023-06-14T11:54:34;86.03;;;82.78;;
11767;SDS011;5941;57.652;12.514;2023-06-14T11:57:00;71.03;;;68.13;;
11767;SDS011;5941;57.652;12.514;2023-06-14T11:59:27;87.90;;;84.55;;
11767;SDS011;5941;57.652;12.514;2023-06-14T12:01:53;80.97;;;77.72;;
11767;SDS011;5941;57.652;12.514;2023-06-14T12:04:28;52.53;;;50.08;;
11767;SDS011;5941;57.652;12.514;2023-06-14T12:06:54;46.17;;;44.05;;
11767;SDS011;5941;57.652;12.514;2023-06-14T12:09:22;66.18;;;63.35;;
11767;SDS011;5941;57.652;12.514;2023-06-14T12:11:49;64.05;;;61.38;;
11767;SDS011;5941;57.652;12.514;2023-06-14T12:14:15;45.78;;;43.55;;
11767;SDS011;5941;57.652;12.514;2023-06-14T12:16:41;20.63;;;19.63;;
11767;SDS011;5941;57.652;12.514;2023-06-14T12:19:14;24.15;;;22.88;;
11767;SDS011;5941;57.652;12.514;2023-06-14T12:21:40;24.75;;;23.38;;
11767;SDS011;5941;57.652;12.514;2023-06-14T12:24:07;40.63;;;38.83;;
11767;SDS011;5941;57.652;12.514;2023-06-14T12:26:33;81.85;;;78.72;;
11767;SDS011;5941;57.652;12.514;2023-06-14T12:28:59;107.13;;;102.93;;
11767;SDS011;5941;57.652;12.514;2023-06-14T12:31:25;70.45;;;67.50;;
11767;SDS011;5941;57.652;12.514;2023-06-14T12:33:51;95.53;;;91.63;;
11767;SDS011;5941;57.652;12.514;2023-06-14T12:36:17;138.93;;;133.32;;
11767;SDS011;5941;57.652;12.514;2023-06-14T12:38:43;76.03;;;73.00;;
11767;SDS011;5941;57.652;12.514;2023-06-14T12:41:11;122.13;;;117.47;;
11767;SDS011;5941;57.652;12.514;2023-06-14T12:43:38;118.13;;;113.60;;
11767;SDS011;5941;57.652;12.514;2023-06-14T12:46:04;201.82;;;194.55;;
11767;SDS011;5941;57.652;12.514;2023-06-14T12:48:31;260.63;;;251.05;;
11767;SDS011;5941;57.652;12.514;2023-06-14T12:50:57;91.65;;;88.07;;
11767;SDS011;5941;57.652;12.514;2023-06-14T12:53:23;110.45;;;106.07;;
11767;SDS011;5941;57.652;12.514;2023-06-14T12:55:49;246.27;;;237.05;;
11767;SDS011;5941;57.652;12.514;2023-06-14T12:58:16;203.00;;;195.30;;
11767;SDS011;5941;57.652;12.514;2023-06-14T13:00:44;53.75;;;51.30;;
11767;SDS011;5941;57.652;12.514;2023-06-14T13:03:10;54.53;;;52.25;;
11767;SDS011;5941;57.652;12.514;2023-06-14T13:05:36;269.08;;;258.77;;
11767;SDS011;5941;57.652;12.514;2023-06-14T13:08:05;297.20;;;285.85;;
11767;SDS011;5941;57.652;12.514;2023-06-14T13:10:31;296.45;;;285.33;;
11767;SDS011;5941;57.652;12.514;2023-06-14T13:12:57;252.40;;;242.95;;
11767;SDS011;5941;57.652;12.514;2023-06-14T13:15:25;314.58;;;302.27;;
11767;SDS011;5941;57.652;12.514;2023-06-14T13:17:50;135.48;;;129.80;;
11767;SDS011;5941;57.652;12.514;2023-06-14T13:20:16;436.35;;;418.38;;
11767;SDS011;5941;57.652;12.514;2023-06-14T13:22:42;348.23;;;334.48;;
11767;SDS011;5941;57.652;12.514;2023-06-14T13:25:08;361.70;;;347.48;;
11767;SDS011;5941;57.652;12.514;2023-06-14T13:27:34;237.43;;;228.70;;
11767;SDS011;5941;57.652;12.514;2023-06-14T13:30:01;218.55;;;210.63;;
11767;SDS011;5941;57.652;12.514;2023-06-14T13:32:27;271.05;;;260.90;;
11767;SDS011;5941;57.652;12.514;2023-06-14T13:34:53;94.53;;;90.78;;
11767;SDS011;5941;57.652;12.514;2023-06-14T13:37:19;120.53;;;115.90;;
11767;SDS011;5941;57.652;12.514;2023-06-14T13:39:46;246.40;;;237.43;;
11767;SDS011;5941;57.652;12.514;2023-06-14T13:42:12;57.25;;;54.80;;
11767;SDS011;5941;57.652;12.514;2023-06-14T13:44:38;259.05;;;249.07;;
11767;SDS011;5941;57.652;12.514;2023-06-14T13:47:04;262.63;;;252.73;;
11767;SDS011;5941;57.652;12.514;2023-06-14T13:49:30;251.98;;;242.55;;
11767;SDS011;5941;57.652;12.514;2023-06-14T13:51:57;382.30;;;367.17;;
11767;SDS011;5941;57.652;12.514;2023-06-14T13:54:23;377.88;;;362.70;;
11767;SDS011;5941;57.652;12.514;2023-06-14T13:56:49;398.88;;;382.77;;
11767;SDS011;5941;57.652;12.514;2023-06-14T13:59:16;317.42;;;305.08;;
11767;SDS011;5941;57.652;12.514;2023-06-14T14:01:41;308.13;;;296.20;;
11767;SDS011;5941;57.652;12.514;2023-06-14T14:04:07;237.25;;;228.43;;
11767;SDS011;5941;57.652;12.514;2023-06-14T14:06:34;281.48;;;270.92;;
11767;SDS011;5941;57.652;12.514;2023-06-14T14:09:00;319.85;;;307.48;;
11767;SDS011;5941;57.652;12.514;2023-06-14T14:11:26;395.20;;;379.45;;